createdAt,value
2023-05-07T00:08:21.058Z,9.8
2023-05-07T00:18:21.548Z,9.3
2023-05-07T00:28:20.769Z,8.8
2023-05-07T00:38:21.232Z,9.3
2023-05-07T00:48:21.205Z,8.3
2023-05-07T00:58:21.660Z,7.8
2023-05-07T01:08:21.050Z,9
2023-05-07T01:18:21.502Z,7.6
2023-05-07T01:28:20.990Z,8.6
2023-05-07T01:38:20.513Z,7.8
2023-05-07T01:48:20.745Z,5.8
2023-05-07T01:58:21.907Z,7.5
2023-05-07T02:08:21.627Z,7.6
2023-05-07T02:18:22.450Z,7.9
2023-05-07T02:28:23.204Z,6.3
2023-05-07T02:38:23.132Z,8.3
2023-05-07T02:48:22.316Z,7.1
2023-05-07T02:58:23.052Z,6.6
2023-05-07T03:08:07.343Z,6.9
2023-05-07T03:18:07.771Z,7.3
2023-05-07T03:28:07.815Z,6.4
2023-05-07T03:38:08.487Z,6.3
2023-05-07T03:48:14.458Z,-0.8
2023-05-07T03:58:25.823Z,5.6
2023-05-07T04:08:41.079Z,6.1
2023-05-07T04:18:56.619Z,8.1
2023-05-07T04:29:13.761Z,15.9
2023-05-07T04:39:30.016Z,10.6
2023-05-07T04:49:46.681Z,11
2023-05-07T05:00:04.459Z,10.9
2023-05-07T05:10:20.809Z,11.6
2023-05-07T05:20:36.692Z,12.4
2023-05-07T05:30:52.930Z,13.4
2023-05-07T05:41:09.521Z,12.7
2023-05-07T05:51:25.511Z,14.6
2023-05-07T06:01:42.028Z,14.8
2023-05-07T06:12:00.417Z,16.7
2023-05-07T06:22:14.465Z,16.8
2023-05-07T06:32:31.431Z,17.2
2023-05-07T06:42:48.744Z,-0.2
2023-05-07T06:53:06.722Z,-1.4
2023-05-07T07:03:23.553Z,19
2023-05-07T07:13:40.272Z,21.8
2023-05-07T07:23:55.876Z,23.2
2023-05-07T07:34:11.851Z,22.8
2023-05-07T07:44:28.719Z,23.9
2023-05-07T07:54:47.077Z,23.4
2023-05-07T08:05:06.218Z,25.1
2023-05-07T08:15:22.914Z,16.4
2023-05-07T08:25:41.639Z,16.6
2023-05-07T08:35:58.621Z,17.3
2023-05-07T08:46:15.140Z,36.9
2023-05-07T08:56:31.268Z,16.4
2023-05-07T09:08:22.092Z,20.8
2023-05-07T09:18:41.896Z,19.6
2023-05-07T09:29:01.448Z,17.3
2023-05-07T09:39:20.074Z,14.7
2023-05-07T09:49:40.039Z,16.8
2023-05-07T09:59:59.710Z,25.6
2023-05-07T10:10:19.216Z,14.4
2023-05-07T10:20:41.298Z,15.1
2023-05-07T10:31:01.368Z,27.9
2023-05-07T10:41:18.401Z,19.4
2023-05-07T10:51:38.167Z,12.8
2023-05-07T11:01:56.575Z,12.9
2023-05-07T11:12:14.568Z,15.9
2023-05-07T11:22:32.509Z,21.7
2023-05-07T11:32:50.067Z,19.4
2023-05-07T11:43:07.366Z,23.5
2023-05-07T11:53:23.941Z,23.9
2023-05-07T12:03:39.972Z,24.5
2023-05-07T12:13:54.087Z,25
2023-05-07T12:24:07.966Z,24.9
2023-05-07T12:34:21.989Z,24.9
2023-05-07T12:44:35.787Z,24.4
2023-05-07T12:54:49.664Z,24.6
2023-05-07T13:05:00.813Z,24.1
2023-05-07T13:15:13.629Z,24.3
2023-05-07T13:25:28.300Z,22.8
2023-05-07T13:35:41.159Z,23.1
2023-05-07T13:45:56.523Z,22.9
2023-05-07T13:56:11.215Z,23.1
2023-05-07T14:06:22.774Z,22.7
2023-05-07T14:16:30.574Z,24.1
2023-05-07T14:26:42.556Z,22.8
2023-05-07T14:36:51.815Z,22.4
2023-05-07T14:46:53.871Z,21.6
2023-05-07T14:56:55.431Z,23.7
2023-05-07T15:08:09.222Z,22
2023-05-07T15:18:09.131Z,22.1
2023-05-07T15:28:10.513Z,18.8
2023-05-07T15:38:12.817Z,19.6
2023-05-07T15:48:12.917Z,18.9
2023-05-07T15:58:12.399Z,21.9
2023-05-07T16:08:14.944Z,19.3
2023-05-07T16:18:16.420Z,21.4
2023-05-07T16:28:17.008Z,21.2
2023-05-07T16:38:17.653Z,20.9
2023-05-07T16:48:20.439Z,20.7
2023-05-07T16:58:18.863Z,20.4
2023-05-07T17:08:19.819Z,17.3
2023-05-07T17:18:19.508Z,18.9
2023-05-07T17:28:19.702Z,18.5
2023-05-07T17:38:20.334Z,16.6
2023-05-07T17:48:20.370Z,18
2023-05-07T17:58:20.338Z,17.6
2023-05-07T18:08:20.543Z,17.6
2023-05-07T18:18:20.802Z,15.2
2023-05-07T18:28:20.650Z,16.6
2023-05-07T18:38:20.445Z,16.2
2023-05-07T18:48:20.208Z,14.3
2023-05-07T18:58:20.344Z,16.1
2023-05-07T19:08:19.685Z,16
2023-05-07T19:18:20.038Z,15.4
2023-05-07T19:28:19.423Z,15.2
2023-05-07T19:38:19.089Z,14.6
2023-05-07T19:48:18.758Z,14.8
2023-05-07T19:58:18.466Z,14.7
2023-05-07T20:08:17.528Z,14.5
2023-05-07T20:18:16.917Z,14.6
2023-05-07T20:28:16.395Z,14.7
2023-05-07T20:38:16.039Z,14.5
2023-05-07T20:48:16.025Z,14.4
2023-05-07T20:58:16.269Z,14.1
2023-05-07T21:08:07.798Z,14.1
2023-05-07T21:18:08.132Z,12.9
2023-05-07T21:28:08.144Z,11.9
2023-05-07T21:38:08.489Z,14.1
2023-05-07T21:48:08.280Z,11.7
2023-05-07T21:58:08.390Z,12.1
2023-05-07T22:08:09.146Z,11.7
2023-05-07T22:18:09.947Z,13.4
2023-05-07T22:28:10.848Z,13
2023-05-07T22:38:11.308Z,13.1
2023-05-07T22:48:11.961Z,12.7
2023-05-07T22:58:12.814Z,12.8
2023-05-07T23:08:13.082Z,12.8
2023-05-07T23:18:14.638Z,11.2
2023-05-07T23:28:17.099Z,10.9
2023-05-07T23:38:19.628Z,10
2023-05-07T23:48:21.834Z,10.6
2023-05-07T23:58:24.180Z,10.8
